sensor_id;sensor_type;location;lat;lon;timestamp;temperature;humidity
42841;DHT22;28491;46.898;7.660;2023-05-18T00:01:58;8.70;1.00
42841;DHT22;28491;46.898;7.660;2023-05-18T00:04:24;8.60;1.00
42841;DHT22;28491;46.898;7.660;2023-05-18T00:06:50;8.60;1.00
42841;DHT22;28491;46.898;7.660;2023-05-18T00:09:23;8.60;1.00
42841;DHT22;28491;46.898;7.660;2023-05-18T00:11:49;8.60;1.00
42841;DHT22;28491;46.898;7.660;2023-05-18T00:14:15;8.60;1.00
42841;DHT22;28491;46.898;7.660;2023-05-18T00:16:41;8.60;1.00
42841;DHT22;28491;46.898;7.660;2023-05-18T00:19:06;8.60;1.00
42841;DHT22;28491;46.898;7.660;2023-05-18T00:21:32;8.50;1.00
42841;DHT22;28491;46.898;7.660;2023-05-18T00:23:57;8.50;1.00
42841;DHT22;28491;46.898;7.660;2023-05-18T00:26:23;8.50;1.00
42841;DHT22;28491;46.898;7.660;2023-05-18T00:28:48;8.50;1.00
42841;DHT22;28491;46.898;7.660;2023-05-18T00:31:14;8.40;1.00
42841;DHT22;28491;46.898;7.660;2023-05-18T00:33:40;8.40;1.00
42841;DHT22;28491;46.898;7.660;2023-05-18T00:36:06;8.40;1.00
42841;DHT22;28491;46.898;7.660;2023-05-18T00:38:31;8.40;1.00
42841;DHT22;28491;46.898;7.660;2023-05-18T00:40:57;8.30;1.00
42841;DHT22;28491;46.898;7.660;2023-05-18T00:43:22;8.40;1.00
42841;DHT22;28491;46.898;7.660;2023-05-18T00:45:48;8.30;1.00
42841;DHT22;28491;46.898;7.660;2023-05-18T00:48:13;8.30;1.00
42841;DHT22;28491;46.898;7.660;2023-05-18T00:50:39;8.30;1.00
42841;DHT22;28491;46.898;7.660;2023-05-18T00:53:05;8.30;1.00
42841;DHT22;28491;46.898;7.660;2023-05-18T00:55:30;8.20;1.00
42841;DHT22;28491;46.898;7.660;2023-05-18T00:57:56;8.20;1.00
42841;DHT22;28491;46.898;7.660;2023-05-18T01:00:23;8.20;1.00
42841;DHT22;28491;46.898;7.660;2023-05-18T01:02:49;8.20;1.00
42841;DHT22;28491;46.898;7.660;2023-05-18T01:05:15;8.20;1.00
42841;DHT22;28491;46.898;7.660;2023-05-18T01:07:42;8.10;1.00
42841;DHT22;28491;46.898;7.660;2023-05-18T01:10:09;8.10;1.00
42841;DHT22;28491;46.898;7.660;2023-05-18T01:12:47;8.10;1.00
42841;DHT22;28491;46.898;7.660;2023-05-18T01:15:19;8.10;1.00
42841;DHT22;28491;46.898;7.660;2023-05-18T01:20:46;8.10;1.00
42841;DHT22;28491;46.898;7.660;2023-05-18T01:28:37;8.00;1.00
42841;DHT22;28491;46.898;7.660;2023-05-18T01:31:03;8.10;1.00
42841;DHT22;28491;46.898;7.660;2023-05-18T01:33:30;8.00;1.00
42841;DHT22;28491;46.898;7.660;2023-05-18T01:35:55;7.90;1.40
42841;DHT22;28491;46.898;7.660;2023-05-18T01:38:26;7.90;5.20
42841;DHT22;28491;46.898;7.660;2023-05-18T01:41:21;7.80;2.20
42841;DHT22;28491;46.898;7.660;2023-05-18T01:44:07;7.90;2.30
42841;DHT22;28491;46.898;7.660;2023-05-18T01:46:58;7.80;6.90
42841;DHT22;28491;46.898;7.660;2023-05-18T01:52:11;7.80;2.70
42841;DHT22;28491;46.898;7.660;2023-05-18T01:54:42;7.80;4.60
42841;DHT22;28491;46.898;7.660;2023-05-18T01:57:09;7.80;6.00
42841;DHT22;28491;46.898;7.660;2023-05-18T01:59:36;7.80;4.70
42841;DHT22;28491;46.898;7.660;2023-05-18T02:02:03;7.80;7.20
42841;DHT22;28491;46.898;7.660;2023-05-18T02:04:29;7.80;6.90
42841;DHT22;28491;46.898;7.660;2023-05-18T02:06:54;7.70;6.90
42841;DHT22;28491;46.898;7.660;2023-05-18T02:09:20;7.70;8.00
42841;DHT22;28491;46.898;7.660;2023-05-18T02:11:46;7.60;10.70
42841;DHT22;28491;46.898;7.660;2023-05-18T02:14:12;7.50;14.10
42841;DHT22;28491;46.898;7.660;2023-05-18T02:16:38;7.50;13.30
42841;DHT22;28491;46.898;7.660;2023-05-18T02:19:03;7.50;12.10
42841;DHT22;28491;46.898;7.660;2023-05-18T02:21:29;7.50;12.70
42841;DHT22;28491;46.898;7.660;2023-05-18T02:23:55;7.50;13.20
42841;DHT22;28491;46.898;7.660;2023-05-18T02:26:20;7.50;13.20
42841;DHT22;28491;46.898;7.660;2023-05-18T02:28:46;7.40;11.80
42841;DHT22;28491;46.898;7.660;2023-05-18T02:31:12;7.40;15.40
42841;DHT22;28491;46.898;7.660;2023-05-18T02:33:38;7.40;14.20
42841;DHT22;28491;46.898;7.660;2023-05-18T02:36:08;7.50;11.90
42841;DHT22;28491;46.898;7.660;2023-05-18T02:38:38;7.50;12.20
42841;DHT22;28491;46.898;7.660;2023-05-18T02:41:04;7.40;15.50
42841;DHT22;28491;46.898;7.660;2023-05-18T02:43:30;7.40;13.80
42841;DHT22;28491;46.898;7.660;2023-05-18T02:45:56;7.50;13.80
42841;DHT22;28491;46.898;7.660;2023-05-18T02:48:21;7.40;18.10
42841;DHT22;28491;46.898;7.660;2023-05-18T02:50:47;7.40;18.10
42841;DHT22;28491;46.898;7.660;2023-05-18T02:53:13;7.30;18.80
42841;DHT22;28491;46.898;7.660;2023-05-18T02:55:39;7.30;20.50
42841;DHT22;28491;46.898;7.660;2023-05-18T02:58:05;7.30;18.50
42841;DHT22;28491;46.898;7.660;2023-05-18T03:00:31;7.30;19.50
42841;DHT22;28491;46.898;7.660;2023-05-18T03:02:57;7.20;21.60
42841;DHT22;28491;46.898;7.660;2023-05-18T03:05:24;7.30;21.50
42841;DHT22;28491;46.898;7.660;2023-05-18T03:07:51;7.20;23.60
42841;DHT22;28491;46.898;7.660;2023-05-18T03:10:20;7.20;25.40
42841;DHT22;28491;46.898;7.660;2023-05-18T03:12:49;7.10;28.30
42841;DHT22;28491;46.898;7.660;2023-05-18T03:15:14;7.10;29.80
42841;DHT22;28491;46.898;7.660;2023-05-18T03:17:43;7.10;31.10
42841;DHT22;28491;46.898;7.660;2023-05-18T03:20:09;7.10;29.00
42841;DHT22;28491;46.898;7.660;2023-05-18T03:22:36;7.10;29.40
42841;DHT22;28491;46.898;7.660;2023-05-18T03:25:03;7.10;29.30
42841;DHT22;28491;46.898;7.660;2023-05-18T03:27:29;7.10;29.20
42841;DHT22;28491;46.898;7.660;2023-05-18T03:29:55;7.10;30.90
42841;DHT22;28491;46.898;7.660;2023-05-18T03:32:23;7.20;27.80
42841;DHT22;28491;46.898;7.660;2023-05-18T03:34:56;7.10;28.10
42841;DHT22;28491;46.898;7.660;2023-05-18T03:37:21;7.00;30.80
42841;DHT22;28491;46.898;7.660;2023-05-18T03:39:47;7.00;33.80
42841;DHT22;28491;46.898;7.660;2023-05-18T03:42:12;7.00;31.90
42841;DHT22;28491;46.898;7.660;2023-05-18T03:44:38;6.90;37.90
42841;DHT22;28491;46.898;7.660;2023-05-18T03:47:04;6.90;39.50
42841;DHT22;28491;46.898;7.660;2023-05-18T03:49:33;6.90;38.70
42841;DHT22;28491;46.898;7.660;2023-05-18T03:51:58;7.00;40.30
42841;DHT22;28491;46.898;7.660;2023-05-18T03:54:24;7.00;37.20
42841;DHT22;28491;46.898;7.660;2023-05-18T03:56:50;7.00;36.70
42841;DHT22;28491;46.898;7.660;2023-05-18T03:59:15;6.90;40.40
42841;DHT22;28491;46.898;7.660;2023-05-18T04:01:41;7.00;39.90
42841;DHT22;28491;46.898;7.660;2023-05-18T04:04:07;7.00;40.00
42841;DHT22;28491;46.898;7.660;2023-05-18T04:06:33;7.00;40.50
42841;DHT22;28491;46.898;7.660;2023-05-18T04:09:00;6.90;39.90
42841;DHT22;28491;46.898;7.660;2023-05-18T04:11:29;6.90;44.60
42841;DHT22;28491;46.898;7.660;2023-05-18T04:13:54;6.90;45.90
42841;DHT22;28491;46.898;7.660;2023-05-18T04:16:22;7.00;46.20
42841;DHT22;28491;46.898;7.660;2023-05-18T04:18:48;7.00;44.40
42841;DHT22;28491;46.898;7.660;2023-05-18T04:21:13;7.00;44.10
42841;DHT22;28491;46.898;7.660;2023-05-18T04:23:40;7.00;44.40
42841;DHT22;28491;46.898;7.660;2023-05-18T04:26:06;7.00;42.90
42841;DHT22;28491;46.898;7.660;2023-05-18T04:28:32;7.10;38.70
42841;DHT22;28491;46.898;7.660;2023-05-18T04:30:57;7.10;41.80
42841;DHT22;28491;46.898;7.660;2023-05-18T04:33:23;7.10;37.40
42841;DHT22;28491;46.898;7.660;2023-05-18T04:35:52;7.20;37.40
42841;DHT22;28491;46.898;7.660;2023-05-18T04:38:23;7.10;42.10
42841;DHT22;28491;46.898;7.660;2023-05-18T04:40:49;7.10;41.20
42841;DHT22;28491;46.898;7.660;2023-05-18T04:43:16;7.10;43.70
42841;DHT22;28491;46.898;7.660;2023-05-18T04:45:42;7.20;43.80
42841;DHT22;28491;46.898;7.660;2023-05-18T04:48:11;7.20;44.30
42841;DHT22;28491;46.898;7.660;2023-05-18T04:50:36;7.10;43.00
42841;DHT22;28491;46.898;7.660;2023-05-18T04:53:02;7.20;45.00
42841;DHT22;28491;46.898;7.660;2023-05-18T04:55:30;7.30;42.80
42841;DHT22;28491;46.898;7.660;2023-05-18T04:57:57;7.30;39.20
42841;DHT22;28491;46.898;7.660;2023-05-18T05:00:25;7.40;37.00
42841;DHT22;28491;46.898;7.660;2023-05-18T05:02:51;7.50;40.00
42841;DHT22;28491;46.898;7.660;2023-05-18T05:05:16;7.40;35.50
42841;DHT22;28491;46.898;7.660;2023-05-18T05:07:43;7.50;38.30
42841;DHT22;28491;46.898;7.660;2023-05-18T05:10:09;7.50;41.00
42841;DHT22;28491;46.898;7.660;2023-05-18T05:12:36;7.60;39.70
42841;DHT22;28491;46.898;7.660;2023-05-18T05:15:02;7.70;31.00
42841;DHT22;28491;46.898;7.660;2023-05-18T05:17:27;7.70;32.80
42841;DHT22;28491;46.898;7.660;2023-05-18T05:19:53;7.70;28.70
42841;DHT22;28491;46.898;7.660;2023-05-18T05:22:18;7.70;25.10
42841;DHT22;28491;46.898;7.660;2023-05-18T05:24:44;7.80;29.40
42841;DHT22;28491;46.898;7.660;2023-05-18T05:27:10;7.90;24.80
42841;DHT22;28491;46.898;7.660;2023-05-18T05:29:35;7.80;27.00
42841;DHT22;28491;46.898;7.660;2023-05-18T05:32:01;7.90;22.00
42841;DHT22;28491;46.898;7.660;2023-05-18T05:34:26;8.00;22.50
42841;DHT22;28491;46.898;7.660;2023-05-18T05:36:52;8.00;17.70
42841;DHT22;28491;46.898;7.660;2023-05-18T05:39:17;8.10;22.90
42841;DHT22;28491;46.898;7.660;2023-05-18T05:41:43;8.20;22.70
42841;DHT22;28491;46.898;7.660;2023-05-18T05:44:08;8.20;21.50
42841;DHT22;28491;46.898;7.660;2023-05-18T05:46:34;8.20;11.40
42841;DHT22;28491;46.898;7.660;2023-05-18T05:48:59;8.30;10.40
42841;DHT22;28491;46.898;7.660;2023-05-18T05:51:26;8.30;15.40
42841;DHT22;28491;46.898;7.660;2023-05-18T05:53:51;8.30;14.40
42841;DHT22;28491;46.898;7.660;2023-05-18T05:56:17;8.30;16.30
42841;DHT22;28491;46.898;7.660;2023-05-18T05:58:43;8.40;16.70
42841;DHT22;28491;46.898;7.660;2023-05-18T06:01:08;8.50;3.60
42841;DHT22;28491;46.898;7.660;2023-05-18T06:03:34;8.50;2.00
42841;DHT22;28491;46.898;7.660;2023-05-18T06:06:01;8.50;1.00
42841;DHT22;28491;46.898;7.660;2023-05-18T06:08:26;8.40;1.00
42841;DHT22;28491;46.898;7.660;2023-05-18T06:10:53;8.30;5.80
42841;DHT22;28491;46.898;7.660;2023-05-18T06:13:19;8.40;14.60
42841;DHT22;28491;46.898;7.660;2023-05-18T06:15:44;8.50;10.70
42841;DHT22;28491;46.898;7.660;2023-05-18T06:18:10;8.50;1.00
42841;DHT22;28491;46.898;7.660;2023-05-18T06:20:36;8.60;10.60
42841;DHT22;28491;46.898;7.660;2023-05-18T06:23:01;8.80;4.80
42841;DHT22;28491;46.898;7.660;2023-05-18T06:25:27;8.80;2.00
42841;DHT22;28491;46.898;7.660;2023-05-18T06:27:52;8.80;3.00
42841;DHT22;28491;46.898;7.660;2023-05-18T06:30:18;8.90;1.00
42841;DHT22;28491;46.898;7.660;2023-05-18T06:32:43;8.90;1.00
42841;DHT22;28491;46.898;7.660;2023-05-18T06:35:09;8.90;1.00
42841;DHT22;28491;46.898;7.660;2023-05-18T06:37:34;8.90;1.00
42841;DHT22;28491;46.898;7.660;2023-05-18T06:40:00;8.90;1.00
42841;DHT22;28491;46.898;7.660;2023-05-18T06:42:25;8.90;1.00
42841;DHT22;28491;46.898;7.660;2023-05-18T06:44:51;8.90;1.80
42841;DHT22;28491;46.898;7.660;2023-05-18T06:47:17;9.00;1.00
42841;DHT22;28491;46.898;7.660;2023-05-18T06:49:42;9.10;1.00
42841;DHT22;28491;46.898;7.660;2023-05-18T06:52:08;9.00;1.00
42841;DHT22;28491;46.898;7.660;2023-05-18T06:54:35;9.10;1.00
42841;DHT22;28491;46.898;7.660;2023-05-18T06:57:01;9.00;1.00
42841;DHT22;28491;46.898;7.660;2023-05-18T06:59:26;9.00;1.00
42841;DHT22;28491;46.898;7.660;2023-05-18T07:01:52;9.00;1.00
42841;DHT22;28491;46.898;7.660;2023-05-18T07:04:17;9.00;1.00
42841;DHT22;28491;46.898;7.660;2023-05-18T07:06:44;9.20;1.00
42841;DHT22;28491;46.898;7.660;2023-05-18T07:09:10;9.20;1.00
42841;DHT22;28491;46.898;7.660;2023-05-18T07:11:36;9.20;1.00
42841;DHT22;28491;46.898;7.660;2023-05-18T07:14:03;9.30;1.00
42841;DHT22;28491;46.898;7.660;2023-05-18T07:16:28;9.40;1.00
42841;DHT22;28491;46.898;7.660;2023-05-18T07:18:56;9.50;1.00
42841;DHT22;28491;46.898;7.660;2023-05-18T07:21:23;9.50;1.00
42841;DHT22;28491;46.898;7.660;2023-05-18T07:23:49;9.60;1.00
42841;DHT22;28491;46.898;7.660;2023-05-18T07:26:16;9.50;1.00
42841;DHT22;28491;46.898;7.660;2023-05-18T07:28:42;9.40;1.00
42841;DHT22;28491;46.898;7.660;2023-05-18T07:31:08;9.40;1.00
42841;DHT22;28491;46.898;7.660;2023-05-18T07:33:33;9.40;1.00
42841;DHT22;28491;46.898;7.660;2023-05-18T07:35:59;9.50;1.00
42841;DHT22;28491;46.898;7.660;2023-05-18T07:38:26;9.50;1.00
42841;DHT22;28491;46.898;7.660;2023-05-18T07:40:51;9.50;1.00
42841;DHT22;28491;46.898;7.660;2023-05-18T07:43:17;9.60;1.00
42841;DHT22;28491;46.898;7.660;2023-05-18T07:45:42;9.60;1.00
42841;DHT22;28491;46.898;7.660;2023-05-18T07:48:08;9.70;1.00
42841;DHT22;28491;46.898;7.660;2023-05-18T07:50:33;9.80;1.00
42841;DHT22;28491;46.898;7.660;2023-05-18T07:53:00;9.80;1.00
42841;DHT22;28491;46.898;7.660;2023-05-18T07:55:25;9.70;1.00
42841;DHT22;28491;46.898;7.660;2023-05-18T07:57:51;9.60;1.00
42841;DHT22;28491;46.898;7.660;2023-05-18T08:00:17;9.70;1.00
42841;DHT22;28491;46.898;7.660;2023-05-18T08:02:43;9.70;1.00
42841;DHT22;28491;46.898;7.660;2023-05-18T08:05:09;9.80;1.00
42841;DHT22;28491;46.898;7.660;2023-05-18T08:07:35;9.90;1.00
42841;DHT22;28491;46.898;7.660;2023-05-18T08:10:01;9.90;1.00
42841;DHT22;28491;46.898;7.660;2023-05-18T08:12:26;9.80;1.00
42841;DHT22;28491;46.898;7.660;2023-05-18T08:14:54;10.00;1.00
42841;DHT22;28491;46.898;7.660;2023-05-18T08:17:20;10.20;1.00
42841;DHT22;28491;46.898;7.660;2023-05-18T08:19:46;10.10;1.00
42841;DHT22;28491;46.898;7.660;2023-05-18T08:22:12;10.30;1.00
42841;DHT22;28491;46.898;7.660;2023-05-18T08:24:38;10.20;1.00
42841;DHT22;28491;46.898;7.660;2023-05-18T08:27:03;10.20;1.00
42841;DHT22;28491;46.898;7.660;2023-05-18T08:29:31;10.30;1.00
42841;DHT22;28491;46.898;7.660;2023-05-18T08:31:56;10.20;1.00
42841;DHT22;28491;46.898;7.660;2023-05-18T08:34:22;10.40;1.00
42841;DHT22;28491;46.898;7.660;2023-05-18T08:36:48;10.60;1.00
42841;DHT22;28491;46.898;7.660;2023-05-18T08:39:13;10.80;1.00
42841;DHT22;28491;46.898;7.660;2023-05-18T08:42:05;10.80;1.00
42841;DHT22;28491;46.898;7.660;2023-05-18T08:44:57;10.70;1.00
42841;DHT22;28491;46.898;7.660;2023-05-18T08:47:28;10.70;1.00
42841;DHT22;28491;46.898;7.660;2023-05-18T08:49:55;10.70;1.00
42841;DHT22;28491;46.898;7.660;2023-05-18T08:52:24;10.60;1.00
42841;DHT22;28491;46.898;7.660;2023-05-18T08:54:53;10.60;1.00
42841;DHT22;28491;46.898;7.660;2023-05-18T08:57:21;10.60;1.00
42841;DHT22;28491;46.898;7.660;2023-05-18T08:59:47;10.60;1.00
42841;DHT22;28491;46.898;7.660;2023-05-18T09:02:13;10.70;1.00
42841;DHT22;28491;46.898;7.660;2023-05-18T09:04:39;10.90;1.00
42841;DHT22;28491;46.898;7.660;2023-05-18T09:07:08;11.00;1.00
42841;DHT22;28491;46.898;7.660;2023-05-18T09:09:34;11.30;1.00
42841;DHT22;28491;46.898;7.660;2023-05-18T09:12:00;11.70;1.00
42841;DHT22;28491;46.898;7.660;2023-05-18T09:14:28;11.60;1.00
42841;DHT22;28491;46.898;7.660;2023-05-18T09:16:54;11.90;1.00
42841;DHT22;28491;46.898;7.660;2023-05-18T09:19:19;12.00;1.00
42841;DHT22;28491;46.898;7.660;2023-05-18T09:21:46;12.00;1.00
42841;DHT22;28491;46.898;7.660;2023-05-18T09:24:11;11.90;1.00
42841;DHT22;28491;46.898;7.660;2023-05-18T09:26:37;11.70;1.00
42841;DHT22;28491;46.898;7.660;2023-05-18T09:29:17;11.50;1.00
42841;DHT22;28491;46.898;7.660;2023-05-18T09:31:44;11.50;1.00
42841;DHT22;28491;46.898;7.660;2023-05-18T09:34:11;11.40;1.00
42841;DHT22;28491;46.898;7.660;2023-05-18T09:36:37;11.40;1.00
42841;DHT22;28491;46.898;7.660;2023-05-18T09:39:07;11.40;1.00
42841;DHT22;28491;46.898;7.660;2023-05-18T09:41:36;11.50;1.00
42841;DHT22;28491;46.898;7.660;2023-05-18T09:44:02;11.40;1.00
42841;DHT22;28491;46.898;7.660;2023-05-18T09:46:35;11.50;1.00
42841;DHT22;28491;46.898;7.660;2023-05-18T09:49:03;11.50;1.00
42841;DHT22;28491;46.898;7.660;2023-05-18T09:51:29;11.40;1.00
42841;DHT22;28491;46.898;7.660;2023-05-18T09:53:57;11.30;1.00
42841;DHT22;28491;46.898;7.660;2023-05-18T09:56:24;11.20;1.00
42841;DHT22;28491;46.898;7.660;2023-05-18T09:58:51;10.90;1.00
42841;DHT22;28491;46.898;7.660;2023-05-18T10:01:17;10.80;1.00
42841;DHT22;28491;46.898;7.660;2023-05-18T10:03:43;10.70;1.00
42841;DHT22;28491;46.898;7.660;2023-05-18T10:06:12;10.70;1.00
42841;DHT22;28491;46.898;7.660;2023-05-18T10:08:38;10.60;1.00
42841;DHT22;28491;46.898;7.660;2023-05-18T10:11:04;10.60;1.00
42841;DHT22;28491;46.898;7.660;2023-05-18T10:13:31;10.50;1.00
42841;DHT22;28491;46.898;7.660;2023-05-18T10:15:59;10.50;1.00
42841;DHT22;28491;46.898;7.660;2023-05-18T10:18:27;10.50;1.00
42841;DHT22;28491;46.898;7.660;2023-05-18T10:20:55;10.40;1.00
42841;DHT22;28491;46.898;7.660;2023-05-18T10:23:22;10.30;1.00
42841;DHT22;28491;46.898;7.660;2023-05-18T10:25:49;10.30;1.00
42841;DHT22;28491;46.898;7.660;2023-05-18T10:28:20;10.30;1.00
42841;DHT22;28491;46.898;7.660;2023-05-18T10:30:51;10.40;1.00
42841;DHT22;28491;46.898;7.660;2023-05-18T10:33:18;10.50;1.00
42841;DHT22;28491;46.898;7.660;2023-05-18T10:35:46;10.60;1.00
42841;DHT22;28491;46.898;7.660;2023-05-18T10:38:17;10.70;1.00
42841;DHT22;28491;46.898;7.660;2023-05-18T10:40:44;10.70;1.00
42841;DHT22;28491;46.898;7.660;2023-05-18T10:43:11;10.80;1.00
42841;DHT22;28491;46.898;7.660;2023-05-18T10:45:37;10.80;1.00
42841;DHT22;28491;46.898;7.660;2023-05-18T10:48:04;10.90;1.00
42841;DHT22;28491;46.898;7.660;2023-05-18T10:50:30;10.90;1.00
42841;DHT22;28491;46.898;7.660;2023-05-18T10:52:58;10.90;1.00
42841;DHT22;28491;46.898;7.660;2023-05-18T10:55:24;10.90;1.00
42841;DHT22;28491;46.898;7.660;2023-05-18T10:57:56;11.00;1.00
42841;DHT22;28491;46.898;7.660;2023-05-18T11:00:22;10.80;1.00
42841;DHT22;28491;46.898;7.660;2023-05-18T11:02:49;10.80;1.00
42841;DHT22;28491;46.898;7.660;2023-05-18T11:05:23;10.80;1.00
42841;DHT22;28491;46.898;7.660;2023-05-18T11:07:48;10.80;1.00
42841;DHT22;28491;46.898;7.660;2023-05-18T11:10:14;10.70;1.00
42841;DHT22;28491;46.898;7.660;2023-05-18T11:12:40;10.70;1.00
42841;DHT22;28491;46.898;7.660;2023-05-18T11:15:06;10.70;1.00
42841;DHT22;28491;46.898;7.660;2023-05-18T11:17:32;10.70;1.00
42841;DHT22;28491;46.898;7.660;2023-05-18T11:22:51;10.70;1.00
42841;DHT22;28491;46.898;7.660;2023-05-18T11:27:49;10.90;1.00
42841;DHT22;28491;46.898;7.660;2023-05-18T11:30:44;11.00;1.00
42841;DHT22;28491;46.898;7.660;2023-05-18T11:33:13;11.00;1.00
42841;DHT22;28491;46.898;7.660;2023-05-18T11:36:10;11.00;1.00
42841;DHT22;28491;46.898;7.660;2023-05-18T11:41:37;11.10;1.00
42841;DHT22;28491;46.898;7.660;2023-05-18T11:44:04;11.20;1.00
42841;DHT22;28491;46.898;7.660;2023-05-18T11:46:31;11.10;1.00
42841;DHT22;28491;46.898;7.660;2023-05-18T11:49:07;11.20;1.00
42841;DHT22;28491;46.898;7.660;2023-05-18T11:52:43;11.20;1.00
42841;DHT22;28491;46.898;7.660;2023-05-18T11:54:44;11.30;1.00
42841;DHT22;28491;46.898;7.660;2023-05-18T11:57:13;11.30;1.00
42841;DHT22;28491;46.898;7.660;2023-05-18T11:59:40;11.40;1.00
42841;DHT22;28491;46.898;7.660;2023-05-18T12:02:06;11.40;1.00
42841;DHT22;28491;46.898;7.660;2023-05-18T12:04:42;11.30;1.00
42841;DHT22;28491;46.898;7.660;2023-05-18T12:07:08;11.30;1.00
42841;DHT22;28491;46.898;7.660;2023-05-18T12:09:33;11.40;1.00
42841;DHT22;28491;46.898;7.660;2023-05-18T12:12:00;11.50;1.00
42841;DHT22;28491;46.898;7.660;2023-05-18T12:14:26;11.60;1.00
42841;DHT22;28491;46.898;7.660;2023-05-18T12:16:53;11.80;1.00
42841;DHT22;28491;46.898;7.660;2023-05-18T12:19:19;11.90;1.00
42841;DHT22;28491;46.898;7.660;2023-05-18T12:21:46;12.00;1.00
42841;DHT22;28491;46.898;7.660;2023-05-18T12:24:11;12.10;1.00
42841;DHT22;28491;46.898;7.660;2023-05-18T12:26:38;12.30;1.00
42841;DHT22;28491;46.898;7.660;2023-05-18T12:29:05;12.20;1.00
42841;DHT22;28491;46.898;7.660;2023-05-18T12:31:31;12.30;1.00
42841;DHT22;28491;46.898;7.660;2023-05-18T12:33:59;12.30;1.00
42841;DHT22;28491;46.898;7.660;2023-05-18T12:36:25;12.30;1.00
42841;DHT22;28491;46.898;7.660;2023-05-18T12:38:51;12.50;1.00
42841;DHT22;28491;46.898;7.660;2023-05-18T12:41:26;12.50;1.00
42841;DHT22;28491;46.898;7.660;2023-05-18T12:43:52;12.40;1.00
42841;DHT22;28491;46.898;7.660;2023-05-18T12:46:22;12.40;1.00
42841;DHT22;28491;46.898;7.660;2023-05-18T12:48:55;12.30;1.00
42841;DHT22;28491;46.898;7.660;2023-05-18T12:51:21;12.30;1.00
42841;DHT22;28491;46.898;7.660;2023-05-18T12:53:50;12.30;1.00
42841;DHT22;28491;46.898;7.660;2023-05-18T12:56:16;12.20;1.00
42841;DHT22;28491;46.898;7.660;2023-05-18T12:58:54;12.30;1.00
42841;DHT22;28491;46.898;7.660;2023-05-18T13:01:20;12.50;1.00
42841;DHT22;28491;46.898;7.660;2023-05-18T13:03:46;12.70;1.00
42841;DHT22;28491;46.898;7.660;2023-05-18T13:06:11;12.60;1.00
42841;DHT22;28491;46.898;7.660;2023-05-18T13:08:37;12.70;1.00
42841;DHT22;28491;46.898;7.660;2023-05-18T13:11:03;12.70;1.00
42841;DHT22;28491;46.898;7.660;2023-05-18T13:13:29;12.60;1.00
42841;DHT22;28491;46.898;7.660;2023-05-18T13:15:55;12.70;1.00
42841;DHT22;28491;46.898;7.660;2023-05-18T13:18:24;12.80;1.00
42841;DHT22;28491;46.898;7.660;2023-05-18T13:20:56;13.00;1.00
42841;DHT22;28491;46.898;7.660;2023-05-18T13:23:28;12.80;1.00
42841;DHT22;28491;46.898;7.660;2023-05-18T13:25:54;12.70;1.00
42841;DHT22;28491;46.898;7.660;2023-05-18T13:28:21;12.60;1.00
42841;DHT22;28491;46.898;7.660;2023-05-18T13:30:48;12.50;1.00
42841;DHT22;28491;46.898;7.660;2023-05-18T13:33:14;12.60;1.00
42841;DHT22;28491;46.898;7.660;2023-05-18T13:35:42;12.70;1.00
42841;DHT22;28491;46.898;7.660;2023-05-18T13:38:09;12.90;1.00
42841;DHT22;28491;46.898;7.660;2023-05-18T13:40:35;13.20;1.00
42841;DHT22;28491;46.898;7.660;2023-05-18T13:43:00;13.30;1.00
42841;DHT22;28491;46.898;7.660;2023-05-18T13:45:26;13.40;1.00
42841;DHT22;28491;46.898;7.660;2023-05-18T13:47:51;13.60;1.00
42841;DHT22;28491;46.898;7.660;2023-05-18T13:50:21;13.70;1.00
42841;DHT22;28491;46.898;7.660;2023-05-18T13:52:47;13.90;1.00
42841;DHT22;28491;46.898;7.660;2023-05-18T13:55:12;13.90;1.00
42841;DHT22;28491;46.898;7.660;2023-05-18T13:57:38;13.90;1.00
42841;DHT22;28491;46.898;7.660;2023-05-18T14:00:05;13.90;1.00
42841;DHT22;28491;46.898;7.660;2023-05-18T14:02:36;14.00;1.00
42841;DHT22;28491;46.898;7.660;2023-05-18T14:05:02;14.00;1.00
42841;DHT22;28491;46.898;7.660;2023-05-18T14:07:28;14.10;1.00
42841;DHT22;28491;46.898;7.660;2023-05-18T14:09:54;13.90;1.00
42841;DHT22;28491;46.898;7.660;2023-05-18T14:12:20;13.70;1.00
42841;DHT22;28491;46.898;7.660;2023-05-18T14:14:45;13.70;1.00
42841;DHT22;28491;46.898;7.660;2023-05-18T14:17:11;13.50;1.00
42841;DHT22;28491;46.898;7.660;2023-05-18T14:19:38;13.50;1.00
42841;DHT22;28491;46.898;7.660;2023-05-18T14:22:04;13.40;1.00
42841;DHT22;28491;46.898;7.660;2023-05-18T14:24:30;13.50;1.00
42841;DHT22;28491;46.898;7.660;2023-05-18T14:26:56;13.50;1.00
42841;DHT22;28491;46.898;7.660;2023-05-18T14:29:21;13.50;1.00
42841;DHT22;28491;46.898;7.660;2023-05-18T14:31:47;13.70;1.00
42841;DHT22;28491;46.898;7.660;2023-05-18T14:34:12;13.90;1.00
42841;DHT22;28491;46.898;7.660;2023-05-18T14:36:38;13.90;1.00
42841;DHT22;28491;46.898;7.660;2023-05-18T14:39:04;13.70;1.00
42841;DHT22;28491;46.898;7.660;2023-05-18T14:41:29;13.70;1.00
42841;DHT22;28491;46.898;7.660;2023-05-18T14:43:55;13.80;1.00
42841;DHT22;28491;46.898;7.660;2023-05-18T14:46:20;13.70;1.00
42841;DHT22;28491;46.898;7.660;2023-05-18T14:48:46;13.60;1.00
42841;DHT22;28491;46.898;7.660;2023-05-18T14:51:12;13.60;1.00
42841;DHT22;28491;46.898;7.660;2023-05-18T14:53:38;13.50;1.00
42841;DHT22;28491;46.898;7.660;2023-05-18T14:56:04;13.40;1.00
42841;DHT22;28491;46.898;7.660;2023-05-18T14:58:33;13.40;1.00
42841;DHT22;28491;46.898;7.660;2023-05-18T15:00:58;13.40;1.00
42841;DHT22;28491;46.898;7.660;2023-05-18T15:03:24;13.40;1.00
42841;DHT22;28491;46.898;7.660;2023-05-18T15:05:49;13.30;1.00
42841;DHT22;28491;46.898;7.660;2023-05-18T15:08:16;13.20;1.00
42841;DHT22;28491;46.898;7.660;2023-05-18T15:10:41;13.00;1.00
42841;DHT22;28491;46.898;7.660;2023-05-18T15:13:07;13.00;1.00
42841;DHT22;28491;46.898;7.660;2023-05-18T15:15:32;13.00;1.00
42841;DHT22;28491;46.898;7.660;2023-05-18T15:17:58;13.00;1.00
42841;DHT22;28491;46.898;7.660;2023-05-18T15:20:23;13.00;1.00
42841;DHT22;28491;46.898;7.660;2023-05-18T15:22:50;12.90;1.00
42841;DHT22;28491;46.898;7.660;2023-05-18T15:25:16;12.90;1.00
42841;DHT22;28491;46.898;7.660;2023-05-18T15:27:41;12.90;1.00
42841;DHT22;28491;46.898;7.660;2023-05-18T15:30:07;12.80;1.00
42841;DHT22;28491;46.898;7.660;2023-05-18T15:32:39;12.80;1.00
42841;DHT22;28491;46.898;7.660;2023-05-18T15:35:07;12.80;1.00
42841;DHT22;28491;46.898;7.660;2023-05-18T15:37:33;13.00;1.00
42841;DHT22;28491;46.898;7.660;2023-05-18T15:39:58;12.90;1.00
42841;DHT22;28491;46.898;7.660;2023-05-18T15:42:24;12.90;1.00
42841;DHT22;28491;46.898;7.660;2023-05-18T15:44:50;12.90;1.00
42841;DHT22;28491;46.898;7.660;2023-05-18T15:47:15;13.00;1.00
42841;DHT22;28491;46.898;7.660;2023-05-18T15:49:41;13.00;1.00
42841;DHT22;28491;46.898;7.660;2023-05-18T15:52:07;13.00;1.00
42841;DHT22;28491;46.898;7.660;2023-05-18T15:54:32;13.00;1.00
42841;DHT22;28491;46.898;7.660;2023-05-18T15:56:59;12.90;1.00
42841;DHT22;28491;46.898;7.660;2023-05-18T15:59:25;13.00;1.00
42841;DHT22;28491;46.898;7.660;2023-05-18T16:01:50;13.10;1.00
42841;DHT22;28491;46.898;7.660;2023-05-18T16:04:16;13.10;1.00
42841;DHT22;28491;46.898;7.660;2023-05-18T16:06:41;13.10;1.00
42841;DHT22;28491;46.898;7.660;2023-05-18T16:09:07;13.10;1.00